Time,TemperatureF,DewpointF,PressureIn,WindDirection,WindDirectionDegrees,WindSpeedMPH,WindSpeedGustMPH,Humidity,HourlyPrecipIn,Conditions,Clouds,dailyrainin,SolarRadiationWatts/m^2,SoftwareType,DateUTC
2013-05-03 00:01:00,40.0,22.0,-100.00,North,358,4.0,6.0,48,-99.99,,,-99.99,0.000000,,2013-05-03 06:01:00,
2013-05-03 00:11:00,40.0,23.0,-100.00,North,11,9.0,9.0,49,-99.99,,,-99.99,0.000000,,2013-05-03 06:11:00,
2013-05-03 00:21:00,40.0,22.0,-100.00,NNE,12,8.0,9.0,47,-99.99,,,-99.99,0.000000,,2013-05-03 06:21:00,
2013-05-03 00:31:00,40.0,22.0,-100.00,NNE,19,6.0,7.0,48,-99.99,,,-99.99,0.000000,,2013-05-03 06:31:00,
2013-05-03 00:42:00,40.0,22.0,-100.00,NNE,22,8.0,8.0,47,-99.99,,,-99.99,0.000000,,2013-05-03 06:42:00,
2013-05-03 00:51:00,39.0,21.0,-100.00,North,354,6.0,9.0,47,-99.99,,,-99.99,0.000000,,2013-05-03 06:51:00,
2013-05-03 01:01:00,39.0,21.0,-100.00,North,353,4.0,6.0,48,-99.99,,,-99.99,0.000000,,2013-05-03 07:01:00,
2013-05-03 01:11:00,39.0,21.0,-100.00,NNE,16,8.0,10.0,46,-99.99,,,-99.99,0.000000,,2013-05-03 07:11:00,
2013-05-03 01:21:00,40.0,20.0,-100.00,North,7,7.0,9.0,43,-99.99,,,-99.99,0.000000,,2013-05-03 07:21:00,
2013-05-03 01:31:00,39.0,19.0,-100.00,NNE,20,4.0,5.0,44,-99.99,,,-99.99,0.000000,,2013-05-03 07:31:00,
2013-05-03 01:42:00,39.0,19.0,-100.00,NNE,22,4.0,6.0,44,-99.99,,,-99.99,0.000000,,2013-05-03 07:42:00,
2013-05-03 01:52:00,39.0,21.0,-100.00,North,10,5.0,7.0,48,-99.99,,,-99.99,0.000000,,2013-05-03 07:52:00,
2013-05-03 02:01:00,39.0,21.0,-100.00,NNE,23,5.0,9.0,47,-99.99,,,-99.99,0.000000,,2013-05-03 08:01:00,
2013-05-03 02:11:00,39.0,21.0,-100.00,NNE,23,5.0,9.0,47,-99.99,,,-99.99,0.000000,,2013-05-03 08:11:00,
2013-05-03 02:21:00,38.0,20.0,-100.00,North,9,9.0,11.0,48,-99.99,,,-99.99,0.000000,,2013-05-03 08:21:00,
2013-05-03 02:31:00,38.0,20.0,-100.00,NNE,19,10.0,10.0,49,-99.99,,,-99.99,0.000000,,2013-05-03 08:31:00,
2013-05-03 02:42:00,38.0,21.0,-100.00,NNE,21,8.0,9.0,50,-99.99,,,-99.99,0.000000,,2013-05-03 08:42:00,
2013-05-03 02:52:00,37.0,20.0,-100.00,North,10,5.0,7.0,50,-99.99,,,-99.99,0.000000,,2013-05-03 08:52:00,
2013-05-03 03:01:00,36.0,21.0,-100.00,North,2,6.0,7.0,53,-99.99,,,-99.99,0.000000,,2013-05-03 09:01:00,
2013-05-03 03:11:00,36.0,21.0,-100.00,North,6,6.0,7.0,54,-99.99,,,-99.99,0.000000,,2013-05-03 09:11:00,
2013-05-03 03:21:00,36.0,20.0,-100.00,NNE,18,6.0,9.0,52,-99.99,,,-99.99,0.000000,,2013-05-03 09:21:00,
2013-05-03 03:32:00,35.0,20.0,-100.00,North,9,7.0,7.0,53,-99.99,,,-99.99,0.000000,,2013-05-03 09:32:00,
2013-05-03 03:42:00,35.0,21.0,-100.00,NNE,22,7.0,8.0,55,-99.99,,,-99.99,0.000000,,2013-05-03 09:42:00,
2013-05-03 03:52:00,35.0,21.0,-100.00,NNE,13,6.0,7.0,55,-99.99,,,-99.99,0.000000,,2013-05-03 09:52:00,
2013-05-03 04:02:00,34.0,21.0,-100.00,North,6,4.0,6.0,57,-99.99,,,-99.99,0.000000,,2013-05-03 10:02:00,
2013-05-03 04:12:00,33.0,20.0,-100.00,North,2,4.0,6.0,59,-99.99,,,-99.99,0.000000,,2013-05-03 10:12:00,
2013-05-03 04:22:00,33.0,20.0,-100.00,NNW,345,2.0,3.0,58,-99.99,,,-99.99,0.000000,,2013-05-03 10:22:00,
2013-05-03 04:32:00,33.0,20.0,-100.00,North,8,2.0,5.0,57,-99.99,,,-99.99,0.000000,,2013-05-03 10:32:00,
2013-05-03 04:42:00,33.0,19.0,-100.00,NNE,22,4.0,6.0,56,-99.99,,,-99.99,0.000000,,2013-05-03 10:42:00,
2013-05-03 04:52:00,32.0,20.0,-100.00,North,351,4.0,6.0,60,-99.99,,,-99.99,0.000000,,2013-05-03 10:52:00,
2013-05-03 05:02:00,31.0,20.0,-100.00,North,355,4.0,4.0,63,-99.99,,,-99.99,0.000000,,2013-05-03 11:02:00,
2013-05-03 05:11:00,32.0,19.0,-100.00,North,354,2.0,4.0,58,-99.99,,,-99.99,0.000000,,2013-05-03 11:11:00,
2013-05-03 05:21:00,32.0,20.0,-100.00,North,2,3.0,5.0,60,-99.99,,,-99.99,0.000000,,2013-05-03 11:21:00,
2013-05-03 05:31:00,32.0,20.0,-100.00,North,355,3.0,5.0,61,-99.99,,,-99.99,0.000000,,2013-05-03 11:31:00,
2013-05-03 05:41:00,32.0,20.0,-100.00,NNE,18,3.0,5.0,59,-99.99,,,-99.99,0.000000,,2013-05-03 11:41:00,
2013-05-03 05:51:00,32.0,20.0,-100.00,North,358,4.0,4.0,62,-99.99,,,-99.99,0.000000,,2013-05-03 11:51:00,
2013-05-03 06:01:00,31.0,20.0,-100.00,North,354,4.0,5.0,64,-99.99,,,-99.99,0.000000,,2013-05-03 12:01:00,
2013-05-03 06:11:00,31.0,20.0,-100.00,North,357,3.0,4.0,62,-99.99,,,-99.99,0.000000,,2013-05-03 12:11:00,
2013-05-03 06:21:00,32.0,19.0,-100.00,North,358,4.0,5.0,59,-99.99,,,-99.99,0.000000,,2013-05-03 12:21:00,
2013-05-03 06:32:00,31.0,19.0,-100.00,North,9,4.0,4.0,59,-99.99,,,-99.99,0.060000,,2013-05-03 12:32:00,
2013-05-03 06:41:00,31.0,19.0,-100.00,North,9,4.0,4.0,59,-99.99,,,-99.99,0.060000,,2013-05-03 12:41:00,
2013-05-03 06:51:00,29.0,18.0,-100.00,NNW,344,1.0,2.0,63,-99.99,,,-99.99,2.070000,,2013-05-03 12:51:00,
2013-05-03 07:01:00,30.0,19.0,-100.00,North,1,2.0,4.0,63,-99.99,,,-99.99,4.870000,,2013-05-03 13:01:00,
2013-05-03 07:11:00,29.0,18.0,-100.00,NW,325,0.0,2.0,63,-99.99,,,-99.99,8.910000,,2013-05-03 13:11:00,
2013-05-03 07:22:00,28.0,19.0,-100.00,South,180,3.0,3.0,66,-99.99,,,-99.99,12.360000,,2013-05-03 13:22:00,
2013-05-03 07:31:00,27.0,18.0,-100.00,SSW,199,3.0,5.0,68,-99.99,,,-99.99,15.310000,,2013-05-03 13:31:00,
2013-05-03 07:42:00,27.0,19.0,-100.00,WSW,254,1.0,2.0,70,-99.99,,,-99.99,18.070000,,2013-05-03 13:42:00,
2013-05-03 07:52:00,29.0,19.0,-100.00,ESE,111,1.0,2.0,65,-99.99,,,-99.99,21.280001,,2013-05-03 13:52:00,
2013-05-03 08:01:00,30.0,18.0,-100.00,East,85,0.0,1.0,61,-99.99,,,-99.99,26.070000,,2013-05-03 14:01:00,
2013-05-03 08:11:00,33.0,19.0,-100.00,ENE,70,1.0,2.0,57,-99.99,,,-99.99,209.600006,,2013-05-03 14:11:00,
2013-05-03 08:21:00,35.0,20.0,-100.00,NNE,16,1.0,2.0,54,-99.99,,,-99.99,241.399994,,2013-05-03 14:21:00,
2013-05-03 08:31:00,37.0,20.0,-100.00,East,85,0.0,2.0,50,-99.99,,,-99.99,284.799988,,2013-05-03 14:31:00,
2013-05-03 08:42:00,38.0,20.0,-100.00,ESE,114,2.0,3.0,49,-99.99,,,-99.99,294.000000,,2013-05-03 14:42:00,
2013-05-03 08:52:00,39.0,21.0,-100.00,ENE,57,1.0,2.0,47,-99.99,,,-99.99,328.100006,,2013-05-03 14:52:00,
2013-05-03 09:01:00,39.0,19.0,-100.00,ESE,110,2.0,4.0,43,-99.99,,,-99.99,397.899994,,2013-05-03 15:01:00,
2013-05-03 09:11:00,41.0,18.0,-100.00,ESE,122,1.0,2.0,39,-99.99,,,-99.99,413.000000,,2013-05-03 15:11:00,
2013-05-03 09:22:00,43.0,17.0,-100.00,SSE,156,3.0,4.0,34,-99.99,,,-99.99,488.299988,,2013-05-03 15:22:00,
2013-05-03 09:32:00,42.0,18.0,-100.00,SSE,156,4.0,5.0,37,-99.99,,,-99.99,570.200012,,2013-05-03 15:32:00,
2013-05-03 09:43:00,43.0,17.0,-100.00,SSE,167,4.0,5.0,34,-99.99,,,-99.99,554.400024,,2013-05-03 15:43:00,
2013-05-03 09:53:00,44.0,17.0,-100.00,SSE,161,4.0,5.0,34,-99.99,,,-99.99,679.099976,,2013-05-03 15:53:00,
2013-05-03 10:03:00,46.0,17.0,-100.00,SSE,160,2.0,4.0,31,-99.99,,,-99.99,754.599976,,2013-05-03 16:03:00,
2013-05-03 10:12:00,47.0,18.0,-100.00,SE,125,1.0,6.0,31,-99.99,,,-99.99,795.700012,,2013-05-03 16:12:00,
2013-05-03 10:22:00,47.0,19.0,-100.00,SSE,164,4.0,5.0,32,-99.99,,,-99.99,839.000000,,2013-05-03 16:22:00,
2013-05-03 10:32:00,48.0,21.0,-100.00,SSE,162,5.0,8.0,34,-99.99,,,-99.99,882.000000,,2013-05-03 16:32:00,
2013-05-03 10:42:00,49.0,20.0,-100.00,South,191,6.0,8.0,31,-99.99,,,-99.99,933.000000,,2013-05-03 16:42:00,
2013-05-03 10:52:00,50.0,19.0,-100.00,South,171,4.0,7.0,28,-99.99,,,-99.99,972.000000,,2013-05-03 16:52:00,
2013-05-03 11:02:00,51.0,20.0,-100.00,SSE,158,4.0,7.0,28,-99.99,,,-99.99,960.000000,,2013-05-03 17:02:00,
2013-05-03 11:11:00,52.0,20.0,-100.00,SSE,163,5.0,7.0,28,-99.99,,,-99.99,973.000000,,2013-05-03 17:11:00,
2013-05-03 11:22:00,53.0,19.0,-100.00,SE,146,4.0,6.0,25,-99.99,,,-99.99,966.000000,,2013-05-03 17:22:00,
2013-05-03 11:31:00,54.0,16.0,-100.00,SSW,195,5.0,6.0,21,-99.99,,,-99.99,973.000000,,2013-05-03 17:31:00,
2013-05-03 11:42:00,56.0,17.0,-100.00,SSE,155,7.0,9.0,21,-99.99,,,-99.99,983.000000,,2013-05-03 17:42:00,
2013-05-03 11:51:00,56.0,18.0,-100.00,SE,137,6.0,8.0,22,-99.99,,,-99.99,991.000000,,2013-05-03 17:51:00,
2013-05-03 12:01:00,58.0,15.0,-100.00,SSE,152,5.0,9.0,17,-99.99,,,-99.99,1002.000000,,2013-05-03 18:01:00,
2013-05-03 12:11:00,59.0,16.0,-100.00,SSW,203,6.0,9.0,18,-99.99,,,-99.99,1013.000000,,2013-05-03 18:11:00,
2013-05-03 12:21:00,59.0,9.0,-100.00,SSW,200,5.0,7.0,13,-99.99,,,-99.99,1022.000000,,2013-05-03 18:21:00,
2013-05-03 12:31:00,60.0,7.0,-100.00,SSW,210,6.0,9.0,11,-99.99,,,-99.99,1028.000000,,2013-05-03 18:31:00,
2013-05-03 12:42:00,61.0,11.0,-100.00,South,184,7.0,9.0,13,-99.99,,,-99.99,1033.000000,,2013-05-03 18:42:00,
2013-05-03 12:51:00,60.0,2.0,-100.00,SE,127,5.0,9.0,9,-99.99,,,-99.99,1039.000000,,2013-05-03 18:51:00,
2013-05-03 13:01:00,62.0,2.0,-100.00,South,177,7.0,9.0,8,-99.99,,,-99.99,1044.000000,,2013-05-03 19:01:00,
2013-05-03 13:11:00,63.0,8.0,-100.00,South,186,7.0,9.0,11,-99.99,,,-99.99,1050.000000,,2013-05-03 19:11:00,
2013-05-03 13:21:00,64.0,4.0,-100.00,South,180,5.0,7.0,8,-99.99,,,-99.99,1053.000000,,2013-05-03 19:21:00,
2013-05-03 13:52:00,64.0,10.0,-100.00,South,185,6.0,9.0,11,-99.99,,,-99.99,1049.000000,,2013-05-03 19:52:00,
2013-05-03 14:02:00,65.0,8.0,-100.00,SSE,168,6.0,8.0,10,-99.99,,,-99.99,1037.000000,,2013-05-03 20:02:00,
2013-05-03 14:11:00,64.0,5.0,-100.00,WSW,256,4.0,9.0,9,-99.99,,,-99.99,984.000000,,2013-05-03 20:11:00,
2013-05-03 14:21:00,66.0,8.0,-100.00,South,185,9.0,11.0,10,-99.99,,,-99.99,1046.000000,,2013-05-03 20:21:00,
2013-05-03 14:31:00,65.0,8.0,-100.00,South,171,8.0,11.0,10,-99.99,,,-99.99,1037.000000,,2013-05-03 20:31:00,
2013-05-03 14:41:00,65.0,8.0,-100.00,SE,133,2.0,7.0,10,-99.99,,,-99.99,1008.000000,,2013-05-03 20:41:00,
2013-05-03 14:52:00,67.0,13.0,-100.00,SSW,208,8.0,15.0,12,-99.99,,,-99.99,1024.000000,,2013-05-03 20:52:00,
2013-05-03 15:01:00,67.0,11.0,-100.00,South,182,12.0,17.0,11,-99.99,,,-99.99,1008.000000,,2013-05-03 21:01:00,
2013-05-03 15:11:00,65.0,11.0,-100.00,SSW,203,6.0,11.0,11,-99.99,,,-99.99,991.000000,,2013-05-03 21:11:00,
2013-05-03 15:21:00,66.0,8.0,-100.00,South,171,9.0,11.0,9,-99.99,,,-99.99,981.000000,,2013-05-03 21:21:00,
2013-05-03 15:32:00,67.0,8.0,-100.00,SSW,195,7.0,14.0,9,-99.99,,,-99.99,950.000000,,2013-05-03 21:32:00,
2013-05-03 15:42:00,67.0,8.0,-100.00,SSW,195,7.0,14.0,9,-99.99,,,-99.99,950.000000,,2013-05-03 21:42:00,
2013-05-03 15:50:00,67.0,15.0,-100.00,South,175,5.0,14.0,13,-99.99,,,-99.99,858.000000,,2013-05-03 21:50:00,
2013-05-03 15:52:00,68.0,13.0,-100.00,South,169,10.0,15.0,12,-99.99,,,-99.99,930.000000,,2013-05-03 21:52:00,
2013-05-03 16:02:00,67.0,9.0,-100.00,South,183,9.0,12.0,10,-99.99,,,-99.99,910.000000,,2013-05-03 22:02:00,
2013-05-03 16:12:00,68.0,13.0,-100.00,South,188,8.0,15.0,11,-99.99,,,-99.99,889.000000,,2013-05-03 22:12:00,
2013-05-03 16:22:00,67.0,15.0,-100.00,South,175,5.0,14.0,13,-99.99,,,-99.99,858.000000,,2013-05-03 22:22:00,
2013-05-03 16:30:00,68.0,14.0,-100.00,South,179,7.0,9.0,12,-99.99,,,-99.99,763.900024,,2013-05-03 22:30:00,
2013-05-03 16:32:00,67.0,15.0,-100.00,South,175,5.0,14.0,13,-99.99,,,-99.99,858.000000,,2013-05-03 22:32:00,
2013-05-03 16:42:00,67.0,15.0,-100.00,South,175,5.0,14.0,13,-99.99,,,-99.99,858.000000,,2013-05-03 22:42:00,
2013-05-03 17:01:00,68.0,14.0,-100.00,South,179,7.0,9.0,12,-99.99,,,-99.99,763.900024,,2013-05-03 23:01:00,
2013-05-03 17:11:00,68.0,14.0,-100.00,South,179,7.0,9.0,12,-99.99,,,-99.99,763.900024,,2013-05-03 23:11:00,
2013-05-03 17:21:00,68.0,14.0,-100.00,South,179,7.0,9.0,12,-99.99,,,-99.99,763.900024,,2013-05-03 23:21:00,
2013-05-03 18:01:00,64.0,10.0,-100.00,West,260,9.0,13.0,11,-99.99,,,-99.99,230.399994,,2013-05-04 00:01:00,
2013-05-03 18:11:00,64.0,10.0,-100.00,West,260,9.0,13.0,11,-99.99,,,-99.99,230.399994,,2013-05-04 00:11:00,
2013-05-03 18:22:00,64.0,8.0,-100.00,WNW,284,4.0,6.0,10,-99.99,,,-99.99,216.500000,,2013-05-04 00:22:00,
2013-05-03 18:31:00,64.0,13.0,-100.00,WSW,246,3.0,7.0,13,-99.99,,,-99.99,158.899994,,2013-05-04 00:31:00,
2013-05-03 18:41:00,64.0,13.0,-100.00,WSW,246,3.0,7.0,13,-99.99,,,-99.99,158.899994,,2013-05-04 00:41:00,
2013-05-03 18:52:00,64.0,10.0,-100.00,ESE,118,4.0,6.0,11,-99.99,,,-99.99,167.500000,,2013-05-04 00:52:00,
2013-05-03 19:01:00,64.0,9.0,-100.00,ESE,112,6.0,8.0,11,-99.99,,,-99.99,157.800003,,2013-05-04 01:01:00,
2013-05-03 19:11:00,63.0,13.0,-100.00,SE,135,10.0,13.0,14,-99.99,,,-99.99,116.699997,,2013-05-04 01:11:00,
2013-05-03 19:21:00,62.0,12.0,-100.00,East,79,8.0,12.0,13,-99.99,,,-99.99,122.900002,,2013-05-04 01:21:00,
2013-05-03 19:31:00,61.0,13.0,-100.00,NE,55,10.0,13.0,15,-99.99,,,-99.99,69.120003,,2013-05-04 01:31:00,
2013-05-03 19:41:00,61.0,13.0,-100.00,NE,55,10.0,13.0,15,-99.99,,,-99.99,69.120003,,2013-05-04 01:41:00,
2013-05-03 19:52:00,61.0,12.0,-100.00,ENE,61,14.0,17.0,14,-99.99,,,-99.99,67.360001,,2013-05-04 01:52:00,
2013-05-03 20:02:00,61.0,12.0,-100.00,ENE,63,11.0,15.0,14,-99.99,,,-99.99,60.459999,,2013-05-04 02:02:00,
2013-05-03 20:11:00,61.0,11.0,-100.00,NE,41,10.0,13.0,14,-99.99,,,-99.99,52.369999,,2013-05-04 02:11:00,
2013-05-03 20:21:00,60.0,12.0,-100.00,NE,35,10.0,14.0,14,-99.99,,,-99.99,33.090000,,2013-05-04 02:21:00,
2013-05-03 20:32:00,60.0,12.0,-100.00,NE,38,11.0,13.0,14,-99.99,,,-99.99,25.090000,,2013-05-04 02:32:00,
2013-05-03 20:41:00,60.0,11.0,-100.00,NE,38,8.0,12.0,14,-99.99,,,-99.99,9.270000,,2013-05-04 02:41:00,
2013-05-03 20:52:00,59.0,11.0,-100.00,NE,50,10.0,12.0,14,-99.99,,,-99.99,5.050000,,2013-05-04 02:52:00,
2013-05-03 21:01:00,59.0,11.0,-100.00,NE,45,9.0,13.0,14,-99.99,,,-99.99,1.810000,,2013-05-04 03:01:00,
2013-05-03 21:11:00,59.0,11.0,-100.00,NNE,18,9.0,13.0,15,-99.99,,,-99.99,0.430000,,2013-05-04 03:11:00,
2013-05-03 21:21:00,58.0,10.0,-100.00,NNE,28,12.0,15.0,14,-99.99,,,-99.99,0.200000,,2013-05-04 03:21:00,
2013-05-03 21:32:00,58.0,9.0,-100.00,NNE,30,11.0,15.0,14,-99.99,,,-99.99,0.080000,,2013-05-04 03:32:00,
2013-05-03 21:43:00,57.0,9.0,-100.00,NNE,22,10.0,13.0,14,-99.99,,,-99.99,0.080000,,2013-05-04 03:43:00,
2013-05-03 21:52:00,56.0,9.0,-100.00,NNE,23,10.0,12.0,15,-99.99,,,-99.99,0.050000,,2013-05-04 03:52:00,
2013-05-03 22:02:00,55.0,10.0,-100.00,North,4,9.0,11.0,16,-99.99,,,-99.99,0.080000,,2013-05-04 04:02:00,
2013-05-03 22:12:00,54.0,12.0,-100.00,NNW,346,6.0,7.0,18,-99.99,,,-99.99,0.020000,,2013-05-04 04:12:00,
2013-05-03 22:22:00,53.0,12.0,-100.00,North,0,8.0,9.0,18,-99.99,,,-99.99,0.020000,,2013-05-04 04:22:00,
2013-05-03 22:32:00,54.0,12.0,-100.00,North,354,8.0,8.0,18,-99.99,,,-99.99,0.010000,,2013-05-04 04:32:00,
2013-05-03 22:42:00,53.0,12.0,-100.00,North,353,7.0,8.0,19,-99.99,,,-99.99,0.060000,,2013-05-04 04:42:00,
2013-05-03 22:52:00,53.0,11.0,-100.00,North,0,8.0,9.0,18,-99.99,,,-99.99,0.020000,,2013-05-04 04:52:00,
2013-05-03 23:02:00,56.0,7.0,-100.00,NNE,30,9.0,11.0,13,-99.99,,,-99.99,0.000000,,2013-05-04 05:02:00,
2013-05-03 23:11:00,55.0,8.0,-100.00,North,5,7.0,12.0,15,-99.99,,,-99.99,0.000000,,2013-05-04 05:11:00,
2013-05-03 23:21:00,53.0,11.0,-100.00,NNW,340,4.0,7.0,18,-99.99,,,-99.99,0.060000,,2013-05-04 05:21:00,
2013-05-03 23:32:00,51.0,12.0,-100.00,North,349,7.0,8.0,20,-99.99,,,-99.99,0.050000,,2013-05-04 05:32:00,
2013-05-03 23:42:00,51.0,12.0,-100.00,NNW,344,8.0,10.0,20,-99.99,,,-99.99,0.120000,,2013-05-04 05:42:00,
2013-05-03 23:51:00,51.0,13.0,-100.00,NNW,346,11.0,13.0,21,-99.99,,,-99.99,0.020000,,2013-05-04 05:51:00,